Terminal Aerodrome Forecast
Issued by NWS Twin Cities, MN

Home | Current Version | Previous Version | Graphics & Text | Print | Product List | Glossary On
Versions: 1 2 3 4 5 6 7 8 9 10 11 12 13 14 15 16 17
437
FTUS43 KMPX 251943 AAA
TAFSTC
TAF AMD
KSTC 251943Z 2520/2618 32011KT P6SM SCT050
     FM252100 26008KT P6SM SCT030 BKN050
      TEMPO 2521/2524 BKN030
     FM260200 23005KT P6SM VCSH SCT025 OVC040
     FM260800 22005KT P6SM VCSH BKN025
     FM261500 26009KT P6SM BKN040=

USA.gov is the U.S. government's official web portal to all federal, state and local government web resources and services.